sensor_id;sensor_type;location;lat;lon;timestamp;P1;durP1;ratioP1;P2;durP2;ratioP2
24631;SDS011;59977;48.782;9.190;2023-02-22T00:01:11;14.38;;;5.63;;
24631;SDS011;59977;48.782;9.190;2023-02-22T00:03:57;14.20;;;5.75;;
24631;SDS011;59977;48.782;9.190;2023-02-22T00:06:23;27.60;;;7.32;;
24631;SDS011;59977;48.782;9.190;2023-02-22T00:08:49;18.48;;;8.00;;
24631;SDS011;59977;48.782;9.190;2023-02-22T00:11:16;19.88;;;7.85;;
24631;SDS011;59977;48.782;9.190;2023-02-22T00:13:42;20.77;;;7.85;;
24631;SDS011;59977;48.782;9.190;2023-02-22T00:16:09;27.40;;;8.05;;
24631;SDS011;59977;48.782;9.190;2023-02-22T00:18:38;18.55;;;6.63;;
24631;SDS011;59977;48.782;9.190;2023-02-22T00:21:05;21.00;;;7.00;;
24631;SDS011;59977;48.782;9.190;2023-02-22T00:23:34;21.58;;;7.65;;
24631;SDS011;59977;48.782;9.190;2023-02-22T00:26:03;17.10;;;7.28;;
24631;SDS011;59977;48.782;9.190;2023-02-22T00:28:29;14.93;;;7.05;;
24631;SDS011;59977;48.782;9.190;2023-02-22T00:30:55;16.65;;;7.65;;
24631;SDS011;59977;48.782;9.190;2023-02-22T00:33:21;14.60;;;6.97;;
24631;SDS011;59977;48.782;9.190;2023-02-22T00:35:47;20.08;;;7.13;;
24631;SDS011;59977;48.782;9.190;2023-02-22T00:38:14;19.77;;;7.30;;
24631;SDS011;59977;48.782;9.190;2023-02-22T00:40:41;16.45;;;7.25;;
24631;SDS011;59977;48.782;9.190;2023-02-22T00:43:09;23.63;;;7.25;;
24631;SDS011;59977;48.782;9.190;2023-02-22T00:45:35;19.88;;;6.80;;
24631;SDS011;59977;48.782;9.190;2023-02-22T00:48:02;19.77;;;6.95;;
24631;SDS011;59977;48.782;9.190;2023-02-22T00:50:29;16.23;;;6.85;;
24631;SDS011;59977;48.782;9.190;2023-02-22T00:52:56;19.70;;;6.82;;
24631;SDS011;59977;48.782;9.190;2023-02-22T00:55:24;20.33;;;6.88;;
24631;SDS011;59977;48.782;9.190;2023-02-22T00:57:52;19.35;;;7.03;;
24631;SDS011;59977;48.782;9.190;2023-02-22T01:00:37;18.98;;;7.15;;
24631;SDS011;59977;48.782;9.190;2023-02-22T01:03:05;22.70;;;7.45;;
24631;SDS011;59977;48.782;9.190;2023-02-22T01:05:32;19.70;;;7.13;;
24631;SDS011;59977;48.782;9.190;2023-02-22T01:07:59;15.70;;;7.57;;
24631;SDS011;59977;48.782;9.190;2023-02-22T01:10:27;21.75;;;7.75;;
24631;SDS011;59977;48.782;9.190;2023-02-22T01:12:53;19.13;;;7.70;;
24631;SDS011;59977;48.782;9.190;2023-02-22T01:15:20;22.65;;;8.07;;
24631;SDS011;59977;48.782;9.190;2023-02-22T01:17:48;21.50;;;7.95;;
24631;SDS011;59977;48.782;9.190;2023-02-22T01:20:15;25.42;;;8.07;;
24631;SDS011;59977;48.782;9.190;2023-02-22T01:22:44;20.55;;;7.53;;
24631;SDS011;59977;48.782;9.190;2023-02-22T01:25:14;24.85;;;7.93;;
24631;SDS011;59977;48.782;9.190;2023-02-22T01:27:41;25.67;;;8.40;;
24631;SDS011;59977;48.782;9.190;2023-02-22T01:30:07;19.77;;;7.18;;
24631;SDS011;59977;48.782;9.190;2023-02-22T01:32:36;24.00;;;7.72;;
24631;SDS011;59977;48.782;9.190;2023-02-22T01:35:05;17.70;;;7.43;;
24631;SDS011;59977;48.782;9.190;2023-02-22T01:37:33;24.77;;;7.85;;
24631;SDS011;59977;48.782;9.190;2023-02-22T01:40:02;19.42;;;8.10;;
24631;SDS011;59977;48.782;9.190;2023-02-22T01:42:28;19.88;;;7.20;;
24631;SDS011;59977;48.782;9.190;2023-02-22T01:48:05;16.58;;;6.97;;
24631;SDS011;59977;48.782;9.190;2023-02-22T01:50:34;22.27;;;7.47;;
24631;SDS011;59977;48.782;9.190;2023-02-22T01:53:04;17.75;;;7.20;;
24631;SDS011;59977;48.782;9.190;2023-02-22T01:55:31;18.45;;;6.93;;
24631;SDS011;59977;48.782;9.190;2023-02-22T01:57:59;24.00;;;7.38;;
24631;SDS011;59977;48.782;9.190;2023-02-22T02:00:26;18.02;;;6.88;;
24631;SDS011;59977;48.782;9.190;2023-02-22T02:02:54;29.30;;;6.80;;
24631;SDS011;59977;48.782;9.190;2023-02-22T02:05:27;18.38;;;6.88;;
24631;SDS011;59977;48.782;9.190;2023-02-22T02:07:55;22.25;;;6.97;;
24631;SDS011;59977;48.782;9.190;2023-02-22T02:10:22;25.85;;;6.97;;
24631;SDS011;59977;48.782;9.190;2023-02-22T02:12:49;14.77;;;7.28;;
24631;SDS011;59977;48.782;9.190;2023-02-22T02:15:18;18.35;;;8.05;;
24631;SDS011;59977;48.782;9.190;2023-02-22T02:17:56;17.73;;;7.88;;
24631;SDS011;59977;48.782;9.190;2023-02-22T02:26:17;26.70;;;7.90;;
24631;SDS011;59977;48.782;9.190;2023-02-22T02:34:38;18.70;;;7.70;;
24631;SDS011;59977;48.782;9.190;2023-02-22T02:37:28;16.40;;;7.00;;
24631;SDS011;59977;48.782;9.190;2023-02-22T02:40:16;18.08;;;7.57;;
24631;SDS011;59977;48.782;9.190;2023-02-22T02:42:52;20.02;;;7.03;;
24631;SDS011;59977;48.782;9.190;2023-02-22T02:48:29;18.27;;;7.72;;
24631;SDS011;59977;48.782;9.190;2023-02-22T02:50:59;22.67;;;8.00;;
24631;SDS011;59977;48.782;9.190;2023-02-22T02:53:37;18.52;;;7.65;;
24631;SDS011;59977;48.782;9.190;2023-02-22T02:56:05;15.57;;;7.43;;
24631;SDS011;59977;48.782;9.190;2023-02-22T02:58:31;16.42;;;7.22;;
24631;SDS011;59977;48.782;9.190;2023-02-22T03:00:59;15.30;;;7.75;;
24631;SDS011;59977;48.782;9.190;2023-02-22T03:06:37;18.58;;;7.38;;
24631;SDS011;59977;48.782;9.190;2023-02-22T03:14:30;27.25;;;7.80;;
24631;SDS011;59977;48.782;9.190;2023-02-22T03:22:38;17.35;;;7.38;;
24631;SDS011;59977;48.782;9.190;2023-02-22T03:25:21;20.05;;;7.80;;
24631;SDS011;59977;48.782;9.190;2023-02-22T03:27:54;19.33;;;7.78;;
24631;SDS011;59977;48.782;9.190;2023-02-22T03:30:30;15.43;;;7.50;;
24631;SDS011;59977;48.782;9.190;2023-02-22T03:33:48;16.83;;;6.93;;
24631;SDS011;59977;48.782;9.190;2023-02-22T03:36:21;19.90;;;7.15;;
24631;SDS011;59977;48.782;9.190;2023-02-22T03:38:51;15.52;;;7.40;;
24631;SDS011;59977;48.782;9.190;2023-02-22T03:41:20;20.38;;;7.68;;
24631;SDS011;59977;48.782;9.190;2023-02-22T03:43:54;18.45;;;7.50;;
24631;SDS011;59977;48.782;9.190;2023-02-22T03:46:24;14.68;;;7.00;;
24631;SDS011;59977;48.782;9.190;2023-02-22T03:49:01;20.13;;;7.20;;
24631;SDS011;59977;48.782;9.190;2023-02-22T03:51:36;18.15;;;7.53;;
24631;SDS011;59977;48.782;9.190;2023-02-22T03:54:03;17.98;;;7.10;;
24631;SDS011;59977;48.782;9.190;2023-02-22T03:56:32;14.55;;;7.07;;
24631;SDS011;59977;48.782;9.190;2023-02-22T03:59:04;21.63;;;7.45;;
24631;SDS011;59977;48.782;9.190;2023-02-22T04:01:31;24.48;;;8.27;;
24631;SDS011;59977;48.782;9.190;2023-02-22T04:03:58;26.50;;;8.13;;
24631;SDS011;59977;48.782;9.190;2023-02-22T04:06:24;22.02;;;7.65;;
24631;SDS011;59977;48.782;9.190;2023-02-22T04:08:50;17.42;;;6.70;;
24631;SDS011;59977;48.782;9.190;2023-02-22T04:11:16;17.95;;;7.55;;
24631;SDS011;59977;48.782;9.190;2023-02-22T04:13:42;17.83;;;7.43;;
24631;SDS011;59977;48.782;9.190;2023-02-22T04:16:08;16.73;;;7.57;;
24631;SDS011;59977;48.782;9.190;2023-02-22T04:18:34;21.83;;;7.15;;
24631;SDS011;59977;48.782;9.190;2023-02-22T04:21:00;20.85;;;7.90;;
24631;SDS011;59977;48.782;9.190;2023-02-22T04:23:26;17.23;;;7.18;;
24631;SDS011;59977;48.782;9.190;2023-02-22T04:25:52;21.58;;;7.25;;
24631;SDS011;59977;48.782;9.190;2023-02-22T04:28:18;20.85;;;7.03;;
24631;SDS011;59977;48.782;9.190;2023-02-22T04:30:44;13.50;;;6.72;;
24631;SDS011;59977;48.782;9.190;2023-02-22T04:33:10;12.77;;;6.63;;
24631;SDS011;59977;48.782;9.190;2023-02-22T04:35:37;16.55;;;7.25;;
24631;SDS011;59977;48.782;9.190;2023-02-22T04:38:03;13.60;;;6.88;;
24631;SDS011;59977;48.782;9.190;2023-02-22T04:40:29;15.43;;;7.20;;
24631;SDS011;59977;48.782;9.190;2023-02-22T04:42:55;15.65;;;6.72;;
24631;SDS011;59977;48.782;9.190;2023-02-22T04:45:21;14.18;;;6.60;;
24631;SDS011;59977;48.782;9.190;2023-02-22T04:47:47;15.90;;;7.18;;
24631;SDS011;59977;48.782;9.190;2023-02-22T04:50:14;15.95;;;7.00;;
24631;SDS011;59977;48.782;9.190;2023-02-22T04:52:40;19.67;;;7.15;;
24631;SDS011;59977;48.782;9.190;2023-02-22T04:55:06;26.25;;;6.75;;
24631;SDS011;59977;48.782;9.190;2023-02-22T04:57:32;18.83;;;7.22;;
24631;SDS011;59977;48.782;9.190;2023-02-22T04:59:58;18.45;;;7.45;;
24631;SDS011;59977;48.782;9.190;2023-02-22T05:02:24;16.80;;;7.13;;
24631;SDS011;59977;48.782;9.190;2023-02-22T05:04:50;19.92;;;7.00;;
24631;SDS011;59977;48.782;9.190;2023-02-22T05:07:16;16.98;;;7.15;;
24631;SDS011;59977;48.782;9.190;2023-02-22T05:09:42;14.00;;;7.10;;
24631;SDS011;59977;48.782;9.190;2023-02-22T05:12:08;18.05;;;6.90;;
24631;SDS011;59977;48.782;9.190;2023-02-22T05:14:34;13.18;;;6.82;;
24631;SDS011;59977;48.782;9.190;2023-02-22T05:17:01;15.77;;;6.78;;
24631;SDS011;59977;48.782;9.190;2023-02-22T05:19:27;14.82;;;6.57;;
24631;SDS011;59977;48.782;9.190;2023-02-22T05:21:53;16.70;;;6.78;;
24631;SDS011;59977;48.782;9.190;2023-02-22T05:24:20;21.02;;;7.88;;
24631;SDS011;59977;48.782;9.190;2023-02-22T05:26:46;20.13;;;7.07;;
24631;SDS011;59977;48.782;9.190;2023-02-22T05:29:15;15.73;;;7.15;;
24631;SDS011;59977;48.782;9.190;2023-02-22T05:31:41;25.08;;;7.30;;
24631;SDS011;59977;48.782;9.190;2023-02-22T05:34:07;20.50;;;6.90;;
24631;SDS011;59977;48.782;9.190;2023-02-22T05:36:33;21.70;;;7.30;;
24631;SDS011;59977;48.782;9.190;2023-02-22T05:38:59;14.70;;;6.90;;
24631;SDS011;59977;48.782;9.190;2023-02-22T05:41:25;23.30;;;8.05;;
24631;SDS011;59977;48.782;9.190;2023-02-22T05:43:51;20.00;;;6.50;;
24631;SDS011;59977;48.782;9.190;2023-02-22T05:46:17;17.05;;;7.07;;
24631;SDS011;59977;48.782;9.190;2023-02-22T05:48:43;15.35;;;6.90;;
24631;SDS011;59977;48.782;9.190;2023-02-22T05:51:09;13.73;;;6.43;;
24631;SDS011;59977;48.782;9.190;2023-02-22T05:53:35;18.17;;;6.75;;
24631;SDS011;59977;48.782;9.190;2023-02-22T05:56:01;16.52;;;7.05;;
24631;SDS011;59977;48.782;9.190;2023-02-22T05:58:27;14.35;;;6.72;;
24631;SDS011;59977;48.782;9.190;2023-02-22T06:00:53;14.68;;;7.10;;
24631;SDS011;59977;48.782;9.190;2023-02-22T06:03:19;18.40;;;7.45;;
24631;SDS011;59977;48.782;9.190;2023-02-22T06:05:45;17.13;;;6.70;;
24631;SDS011;59977;48.782;9.190;2023-02-22T06:08:11;26.33;;;8.02;;
24631;SDS011;59977;48.782;9.190;2023-02-22T06:10:37;20.10;;;7.45;;
24631;SDS011;59977;48.782;9.190;2023-02-22T06:13:03;17.25;;;7.45;;
24631;SDS011;59977;48.782;9.190;2023-02-22T06:15:29;20.30;;;6.88;;
24631;SDS011;59977;48.782;9.190;2023-02-22T06:17:56;18.80;;;7.25;;
24631;SDS011;59977;48.782;9.190;2023-02-22T06:20:23;20.63;;;7.00;;
24631;SDS011;59977;48.782;9.190;2023-02-22T06:22:50;13.25;;;6.95;;
24631;SDS011;59977;48.782;9.190;2023-02-22T06:25:18;13.02;;;7.50;;
24631;SDS011;59977;48.782;9.190;2023-02-22T06:27:46;22.15;;;7.20;;
24631;SDS011;59977;48.782;9.190;2023-02-22T06:30:13;19.20;;;7.47;;
24631;SDS011;59977;48.782;9.190;2023-02-22T06:32:40;16.27;;;7.45;;
24631;SDS011;59977;48.782;9.190;2023-02-22T06:35:06;17.10;;;6.30;;
24631;SDS011;59977;48.782;9.190;2023-02-22T06:37:32;16.48;;;7.55;;
24631;SDS011;59977;48.782;9.190;2023-02-22T06:39:58;18.58;;;7.75;;
24631;SDS011;59977;48.782;9.190;2023-02-22T06:42:24;17.50;;;7.03;;
24631;SDS011;59977;48.782;9.190;2023-02-22T06:44:50;16.15;;;6.90;;
24631;SDS011;59977;48.782;9.190;2023-02-22T06:47:16;15.40;;;7.30;;
24631;SDS011;59977;48.782;9.190;2023-02-22T06:49:42;15.25;;;6.93;;
24631;SDS011;59977;48.782;9.190;2023-02-22T06:52:08;16.20;;;6.38;;
24631;SDS011;59977;48.782;9.190;2023-02-22T06:54:35;16.90;;;6.65;;
24631;SDS011;59977;48.782;9.190;2023-02-22T06:57:02;13.55;;;6.95;;
24631;SDS011;59977;48.782;9.190;2023-02-22T06:59:28;17.38;;;7.07;;
24631;SDS011;59977;48.782;9.190;2023-02-22T07:01:54;17.42;;;7.40;;
24631;SDS011;59977;48.782;9.190;2023-02-22T07:04:20;16.00;;;7.25;;
24631;SDS011;59977;48.782;9.190;2023-02-22T07:06:46;18.17;;;5.88;;
24631;SDS011;59977;48.782;9.190;2023-02-22T07:09:12;18.55;;;7.53;;
24631;SDS011;59977;48.782;9.190;2023-02-22T07:11:39;19.08;;;7.00;;
24631;SDS011;59977;48.782;9.190;2023-02-22T07:14:05;13.93;;;7.50;;
24631;SDS011;59977;48.782;9.190;2023-02-22T07:16:31;16.10;;;6.47;;
24631;SDS011;59977;48.782;9.190;2023-02-22T07:18:57;16.75;;;7.63;;
24631;SDS011;59977;48.782;9.190;2023-02-22T07:21:24;18.40;;;7.22;;
24631;SDS011;59977;48.782;9.190;2023-02-22T07:23:55;15.23;;;7.07;;
24631;SDS011;59977;48.782;9.190;2023-02-22T07:26:22;17.48;;;7.30;;
24631;SDS011;59977;48.782;9.190;2023-02-22T07:28:49;14.82;;;6.93;;
24631;SDS011;59977;48.782;9.190;2023-02-22T07:31:15;17.08;;;7.03;;
24631;SDS011;59977;48.782;9.190;2023-02-22T07:33:41;18.55;;;7.35;;
24631;SDS011;59977;48.782;9.190;2023-02-22T07:36:08;17.52;;;7.50;;
24631;SDS011;59977;48.782;9.190;2023-02-22T07:38:34;15.73;;;7.10;;
24631;SDS011;59977;48.782;9.190;2023-02-22T07:41:00;16.23;;;7.60;;
24631;SDS011;59977;48.782;9.190;2023-02-22T07:43:26;24.17;;;7.50;;
24631;SDS011;59977;48.782;9.190;2023-02-22T07:45:54;24.73;;;7.60;;
24631;SDS011;59977;48.782;9.190;2023-02-22T07:48:22;14.88;;;7.47;;
24631;SDS011;59977;48.782;9.190;2023-02-22T07:50:48;22.60;;;7.70;;
24631;SDS011;59977;48.782;9.190;2023-02-22T07:53:16;18.73;;;7.68;;
24631;SDS011;59977;48.782;9.190;2023-02-22T07:58:15;15.75;;;7.22;;
24631;SDS011;59977;48.782;9.190;2023-02-22T08:00:41;13.40;;;7.00;;
24631;SDS011;59977;48.782;9.190;2023-02-22T08:03:09;18.55;;;7.32;;
24631;SDS011;59977;48.782;9.190;2023-02-22T08:05:37;18.75;;;7.00;;
24631;SDS011;59977;48.782;9.190;2023-02-22T08:08:03;17.38;;;6.95;;
24631;SDS011;59977;48.782;9.190;2023-02-22T08:10:30;19.40;;;7.70;;
24631;SDS011;59977;48.782;9.190;2023-02-22T08:12:56;20.63;;;7.00;;
24631;SDS011;59977;48.782;9.190;2023-02-22T08:15:24;15.80;;;6.93;;
24631;SDS011;59977;48.782;9.190;2023-02-22T08:17:50;15.27;;;7.35;;
24631;SDS011;59977;48.782;9.190;2023-02-22T08:20:30;23.38;;;6.68;;
24631;SDS011;59977;48.782;9.190;2023-02-22T08:23:15;20.63;;;7.05;;
24631;SDS011;59977;48.782;9.190;2023-02-22T08:25:47;23.27;;;8.10;;
24631;SDS011;59977;48.782;9.190;2023-02-22T08:28:14;15.25;;;6.63;;
24631;SDS011;59977;48.782;9.190;2023-02-22T08:30:40;21.50;;;7.03;;
24631;SDS011;59977;48.782;9.190;2023-02-22T08:33:08;18.50;;;7.13;;
24631;SDS011;59977;48.782;9.190;2023-02-22T08:35:34;21.65;;;7.32;;
24631;SDS011;59977;48.782;9.190;2023-02-22T08:38:02;18.17;;;7.25;;
24631;SDS011;59977;48.782;9.190;2023-02-22T08:40:29;27.75;;;8.20;;
24631;SDS011;59977;48.782;9.190;2023-02-22T08:42:55;15.80;;;6.70;;
24631;SDS011;59977;48.782;9.190;2023-02-22T08:45:21;19.65;;;7.68;;
24631;SDS011;59977;48.782;9.190;2023-02-22T08:47:47;18.95;;;6.88;;
24631;SDS011;59977;48.782;9.190;2023-02-22T08:50:20;25.67;;;7.65;;
24631;SDS011;59977;48.782;9.190;2023-02-22T08:52:46;21.33;;;7.75;;
24631;SDS011;59977;48.782;9.190;2023-02-22T08:55:12;23.35;;;7.32;;
24631;SDS011;59977;48.782;9.190;2023-02-22T08:57:38;16.73;;;7.30;;
24631;SDS011;59977;48.782;9.190;2023-02-22T09:00:05;20.17;;;6.93;;
24631;SDS011;59977;48.782;9.190;2023-02-22T09:02:31;13.27;;;7.35;;
24631;SDS011;59977;48.782;9.190;2023-02-22T09:04:57;15.85;;;6.85;;
24631;SDS011;59977;48.782;9.190;2023-02-22T09:09:58;18.90;;;7.47;;
24631;SDS011;59977;48.782;9.190;2023-02-22T09:12:24;18.20;;;7.70;;
24631;SDS011;59977;48.782;9.190;2023-02-22T09:14:50;19.08;;;8.48;;
24631;SDS011;59977;48.782;9.190;2023-02-22T09:17:16;17.38;;;7.55;;
24631;SDS011;59977;48.782;9.190;2023-02-22T09:19:42;22.05;;;7.95;;
24631;SDS011;59977;48.782;9.190;2023-02-22T09:22:09;20.50;;;8.13;;
24631;SDS011;59977;48.782;9.190;2023-02-22T09:24:35;25.98;;;8.70;;
24631;SDS011;59977;48.782;9.190;2023-02-22T09:27:01;21.80;;;9.35;;
24631;SDS011;59977;48.782;9.190;2023-02-22T09:29:28;21.40;;;8.90;;
24631;SDS011;59977;48.782;9.190;2023-02-22T09:31:55;23.10;;;8.38;;
24631;SDS011;59977;48.782;9.190;2023-02-22T09:34:22;23.50;;;8.45;;
24631;SDS011;59977;48.782;9.190;2023-02-22T09:36:53;23.23;;;7.95;;
24631;SDS011;59977;48.782;9.190;2023-02-22T09:39:21;24.80;;;8.15;;
24631;SDS011;59977;48.782;9.190;2023-02-22T09:44:45;24.30;;;7.88;;
24631;SDS011;59977;48.782;9.190;2023-02-22T09:47:19;18.73;;;7.05;;
24631;SDS011;59977;48.782;9.190;2023-02-22T09:50:03;21.48;;;6.93;;
24631;SDS011;59977;48.782;9.190;2023-02-22T09:53:25;23.85;;;7.47;;
24631;SDS011;59977;48.782;9.190;2023-02-22T09:55:49;19.83;;;6.53;;
24631;SDS011;59977;48.782;9.190;2023-02-22T09:58:21;23.90;;;7.28;;
24631;SDS011;59977;48.782;9.190;2023-02-22T10:03:23;17.30;;;7.85;;
24631;SDS011;59977;48.782;9.190;2023-02-22T10:06:01;19.02;;;7.28;;
24631;SDS011;59977;48.782;9.190;2023-02-22T10:08:39;16.73;;;7.43;;
24631;SDS011;59977;48.782;9.190;2023-02-22T10:16:42;14.80;;;7.47;;
24631;SDS011;59977;48.782;9.190;2023-02-22T10:19:36;19.02;;;7.57;;
24631;SDS011;59977;48.782;9.190;2023-02-22T10:24:59;18.73;;;6.78;;
24631;SDS011;59977;48.782;9.190;2023-02-22T10:29:59;23.13;;;7.57;;
24631;SDS011;59977;48.782;9.190;2023-02-22T10:32:41;22.25;;;7.00;;
24631;SDS011;59977;48.782;9.190;2023-02-22T10:35:28;17.70;;;7.93;;
24631;SDS011;59977;48.782;9.190;2023-02-22T10:37:58;21.40;;;7.85;;
24631;SDS011;59977;48.782;9.190;2023-02-22T10:43:43;18.25;;;7.90;;
24631;SDS011;59977;48.782;9.190;2023-02-22T10:46:15;18.92;;;7.45;;
24631;SDS011;59977;48.782;9.190;2023-02-22T10:48:46;18.13;;;7.43;;
24631;SDS011;59977;48.782;9.190;2023-02-22T10:51:15;26.80;;;7.40;;
24631;SDS011;59977;48.782;9.190;2023-02-22T10:53:41;24.67;;;8.07;;
24631;SDS011;59977;48.782;9.190;2023-02-22T10:56:13;16.70;;;7.40;;
24631;SDS011;59977;48.782;9.190;2023-02-22T11:01:20;25.83;;;7.88;;
24631;SDS011;59977;48.782;9.190;2023-02-22T11:04:00;22.02;;;7.75;;
24631;SDS011;59977;48.782;9.190;2023-02-22T11:06:26;23.40;;;7.53;;
24631;SDS011;59977;48.782;9.190;2023-02-22T11:09:03;16.35;;;8.00;;
24631;SDS011;59977;48.782;9.190;2023-02-22T11:11:30;21.85;;;8.00;;
24631;SDS011;59977;48.782;9.190;2023-02-22T11:13:58;15.43;;;7.78;;
24631;SDS011;59977;48.782;9.190;2023-02-22T11:18:50;19.90;;;8.15;;
24631;SDS011;59977;48.782;9.190;2023-02-22T11:21:27;15.93;;;7.85;;
24631;SDS011;59977;48.782;9.190;2023-02-22T11:24:03;18.98;;;7.47;;
24631;SDS011;59977;48.782;9.190;2023-02-22T11:26:46;15.57;;;8.23;;
24631;SDS011;59977;48.782;9.190;2023-02-22T11:29:35;18.88;;;7.65;;
24631;SDS011;59977;48.782;9.190;2023-02-22T11:32:03;21.13;;;7.63;;
24631;SDS011;59977;48.782;9.190;2023-02-22T11:34:45;13.05;;;7.30;;
24631;SDS011;59977;48.782;9.190;2023-02-22T11:40:35;16.17;;;7.82;;
24631;SDS011;59977;48.782;9.190;2023-02-22T11:42:44;16.20;;;8.20;;
24631;SDS011;59977;48.782;9.190;2023-02-22T11:47:50;14.35;;;7.55;;
24631;SDS011;59977;48.782;9.190;2023-02-22T11:50:28;19.90;;;8.07;;
24631;SDS011;59977;48.782;9.190;2023-02-22T11:53:13;16.50;;;7.72;;
24631;SDS011;59977;48.782;9.190;2023-02-22T11:58:49;18.80;;;8.85;;
24631;SDS011;59977;48.782;9.190;2023-02-22T12:09:50;33.75;;;9.43;;
24631;SDS011;59977;48.782;9.190;2023-02-22T12:15:26;20.48;;;9.35;;
24631;SDS011;59977;48.782;9.190;2023-02-22T12:18:17;13.25;;;8.82;;
24631;SDS011;59977;48.782;9.190;2023-02-22T12:20:59;19.63;;;9.63;;
24631;SDS011;59977;48.782;9.190;2023-02-22T12:23:32;18.40;;;9.27;;
24631;SDS011;59977;48.782;9.190;2023-02-22T12:26:11;20.70;;;9.10;;
24631;SDS011;59977;48.782;9.190;2023-02-22T12:28:42;17.92;;;9.20;;
24631;SDS011;59977;48.782;9.190;2023-02-22T12:31:27;19.02;;;9.52;;
24631;SDS011;59977;48.782;9.190;2023-02-22T12:34:03;20.08;;;9.02;;
24631;SDS011;59977;48.782;9.190;2023-02-22T12:36:46;16.58;;;9.45;;
24631;SDS011;59977;48.782;9.190;2023-02-22T12:41:47;21.27;;;9.82;;
24631;SDS011;59977;48.782;9.190;2023-02-22T12:44:30;14.63;;;9.40;;
24631;SDS011;59977;48.782;9.190;2023-02-22T12:47:00;24.02;;;9.93;;
24631;SDS011;59977;48.782;9.190;2023-02-22T12:49:33;17.38;;;9.50;;
24631;SDS011;59977;48.782;9.190;2023-02-22T13:00:17;18.48;;;8.95;;
24631;SDS011;59977;48.782;9.190;2023-02-22T13:05:29;15.60;;;8.73;;
24631;SDS011;59977;48.782;9.190;2023-02-22T13:13:32;15.93;;;7.88;;
24631;SDS011;59977;48.782;9.190;2023-02-22T13:21:56;16.40;;;8.38;;
24631;SDS011;59977;48.782;9.190;2023-02-22T13:27:12;20.75;;;8.00;;
24631;SDS011;59977;48.782;9.190;2023-02-22T13:29:47;19.85;;;8.38;;
24631;SDS011;59977;48.782;9.190;2023-02-22T13:34:59;18.58;;;7.57;;
24631;SDS011;59977;48.782;9.190;2023-02-22T13:53:17;16.15;;;8.27;;
24631;SDS011;59977;48.782;9.190;2023-02-22T13:55:53;17.60;;;7.88;;
24631;SDS011;59977;48.782;9.190;2023-02-22T13:58:22;15.68;;;8.13;;
24631;SDS011;59977;48.782;9.190;2023-02-22T14:00:55;14.32;;;8.45;;
24631;SDS011;59977;48.782;9.190;2023-02-22T14:03:33;14.93;;;8.38;;
24631;SDS011;59977;48.782;9.190;2023-02-22T14:06:02;17.63;;;8.57;;
24631;SDS011;59977;48.782;9.190;2023-02-22T14:10:56;14.25;;;8.50;;
24631;SDS011;59977;48.782;9.190;2023-02-22T14:13:26;16.58;;;8.00;;
24631;SDS011;59977;48.782;9.190;2023-02-22T14:18:25;17.13;;;8.65;;
24631;SDS011;59977;48.782;9.190;2023-02-22T14:21:09;18.58;;;8.07;;
24631;SDS011;59977;48.782;9.190;2023-02-22T14:23:40;18.35;;;8.30;;
24631;SDS011;59977;48.782;9.190;2023-02-22T14:33:56;30.08;;;9.07;;
24631;SDS011;59977;48.782;9.190;2023-02-22T14:36:31;18.30;;;8.57;;
24631;SDS011;59977;48.782;9.190;2023-02-22T14:39:02;21.23;;;9.98;;
24631;SDS011;59977;48.782;9.190;2023-02-22T14:41:43;20.70;;;8.75;;
24631;SDS011;59977;48.782;9.190;2023-02-22T14:44:20;23.17;;;8.68;;
24631;SDS011;59977;48.782;9.190;2023-02-22T14:46:50;16.50;;;8.63;;
24631;SDS011;59977;48.782;9.190;2023-02-22T14:49:20;20.98;;;9.20;;
24631;SDS011;59977;48.782;9.190;2023-02-22T14:51:53;18.20;;;8.00;;
24631;SDS011;59977;48.782;9.190;2023-02-22T14:57:10;15.60;;;8.77;;
24631;SDS011;59977;48.782;9.190;2023-02-22T15:00:05;18.77;;;8.27;;
24631;SDS011;59977;48.782;9.190;2023-02-22T15:02:44;19.27;;;8.63;;
24631;SDS011;59977;48.782;9.190;2023-02-22T15:05:15;25.55;;;9.13;;
24631;SDS011;59977;48.782;9.190;2023-02-22T15:10:21;19.77;;;9.80;;
24631;SDS011;59977;48.782;9.190;2023-02-22T15:13:00;16.80;;;9.60;;
24631;SDS011;59977;48.782;9.190;2023-02-22T15:15:43;20.85;;;9.68;;
24631;SDS011;59977;48.782;9.190;2023-02-22T15:18:17;17.73;;;9.85;;
24631;SDS011;59977;48.782;9.190;2023-02-22T15:21:01;16.77;;;9.30;;
24631;SDS011;59977;48.782;9.190;2023-02-22T15:23:38;14.40;;;9.57;;
24631;SDS011;59977;48.782;9.190;2023-02-22T15:26:07;17.83;;;9.50;;
24631;SDS011;59977;48.782;9.190;2023-02-22T15:28:33;21.08;;;10.38;;
24631;SDS011;59977;48.782;9.190;2023-02-22T15:31:15;21.77;;;10.40;;
24631;SDS011;59977;48.782;9.190;2023-02-22T15:33:47;18.27;;;10.50;;
24631;SDS011;59977;48.782;9.190;2023-02-22T15:36:17;22.63;;;10.35;;
24631;SDS011;59977;48.782;9.190;2023-02-22T15:38:50;18.38;;;10.27;;
24631;SDS011;59977;48.782;9.190;2023-02-22T15:41:29;16.15;;;9.93;;
24631;SDS011;59977;48.782;9.190;2023-02-22T15:44:07;17.85;;;10.40;;
24631;SDS011;59977;48.782;9.190;2023-02-22T15:46:35;23.27;;;10.18;;
24631;SDS011;59977;48.782;9.190;2023-02-22T15:49:06;24.60;;;11.02;;
24631;SDS011;59977;48.782;9.190;2023-02-22T15:51:36;24.38;;;10.70;;
24631;SDS011;59977;48.782;9.190;2023-02-22T15:54:04;28.13;;;11.80;;
24631;SDS011;59977;48.782;9.190;2023-02-22T15:56:33;28.92;;;11.65;;
24631;SDS011;59977;48.782;9.190;2023-02-22T15:59:21;20.38;;;11.88;;
24631;SDS011;59977;48.782;9.190;2023-02-22T16:01:48;20.50;;;12.50;;
24631;SDS011;59977;48.782;9.190;2023-02-22T16:04:16;25.05;;;12.55;;
24631;SDS011;59977;48.782;9.190;2023-02-22T16:06:44;26.25;;;13.00;;
24631;SDS011;59977;48.782;9.190;2023-02-22T16:11:38;24.02;;;12.85;;
24631;SDS011;59977;48.782;9.190;2023-02-22T16:14:28;23.30;;;12.70;;
24631;SDS011;59977;48.782;9.190;2023-02-22T16:19:36;22.15;;;12.63;;
24631;SDS011;59977;48.782;9.190;2023-02-22T16:22:04;25.83;;;13.10;;
24631;SDS011;59977;48.782;9.190;2023-02-22T16:24:37;25.85;;;12.57;;
24631;SDS011;59977;48.782;9.190;2023-02-22T16:27:22;22.70;;;12.65;;
24631;SDS011;59977;48.782;9.190;2023-02-22T16:30:05;22.33;;;12.63;;
24631;SDS011;59977;48.782;9.190;2023-02-22T16:32:45;25.02;;;12.32;;
24631;SDS011;59977;48.782;9.190;2023-02-22T16:35:12;24.50;;;12.32;;
24631;SDS011;59977;48.782;9.190;2023-02-22T16:37:51;25.90;;;12.93;;
24631;SDS011;59977;48.782;9.190;2023-02-22T16:43:02;36.15;;;13.60;;
24631;SDS011;59977;48.782;9.190;2023-02-22T16:45:30;25.63;;;12.95;;
24631;SDS011;59977;48.782;9.190;2023-02-22T16:47:57;23.25;;;12.95;;
24631;SDS011;59977;48.782;9.190;2023-02-22T16:50:23;22.98;;;12.77;;
24631;SDS011;59977;48.782;9.190;2023-02-22T16:52:50;26.35;;;11.95;;
24631;SDS011;59977;48.782;9.190;2023-02-22T16:55:17;24.25;;;11.82;;
24631;SDS011;59977;48.782;9.190;2023-02-22T16:57:44;24.63;;;13.20;;
24631;SDS011;59977;48.782;9.190;2023-02-22T17:00:13;24.05;;;12.73;;
24631;SDS011;59977;48.782;9.190;2023-02-22T17:02:45;28.45;;;12.13;;
24631;SDS011;59977;48.782;9.190;2023-02-22T17:05:12;21.23;;;12.75;;
24631;SDS011;59977;48.782;9.190;2023-02-22T17:07:39;29.23;;;12.48;;
24631;SDS011;59977;48.782;9.190;2023-02-22T17:10:06;32.65;;;12.98;;
24631;SDS011;59977;48.782;9.190;2023-02-22T17:12:38;24.65;;;11.98;;
24631;SDS011;59977;48.782;9.190;2023-02-22T17:15:09;20.67;;;12.10;;
24631;SDS011;59977;48.782;9.190;2023-02-22T17:17:59;25.00;;;13.98;;
24631;SDS011;59977;48.782;9.190;2023-02-22T17:20:28;21.98;;;12.45;;
24631;SDS011;59977;48.782;9.190;2023-02-22T17:22:58;30.85;;;12.73;;
24631;SDS011;59977;48.782;9.190;2023-02-22T17:25:30;23.55;;;12.43;;